Time;durP1;ratioP1;P1;durP2;ratioP2;P2;SDS_P1;SDS_P2;PMS_P1;PMS_P2;Temp;Humidity;BMP_temperature;BMP_pressure;BME280_temperature;BME280_humidity;BME280_pressure;Samples;Min_cycle;Max_cycle;Signal;HPM_P1;HPM_P2
2022/02/03 00:04:21;;;;;;;9.40;8.50;;;7.20;99.90;;;;;;5018869;28;20960;-61
2022/02/03 00:06:53;;;;;;;9.03;8.23;;;7.10;99.90;;;;;;5016121;28;21170;-62
2022/02/03 00:09:48;;;;;;;11.23;9.00;;;7.20;99.90;;;;;;5018947;28;20476;-62
2022/02/03 00:23:23;;;;;;;11.13;9.50;;;7.10;99.90;;;;;;5020397;28;20540;-61
2022/02/03 00:25:46;;;;;;;10.60;9.50;;;7.00;99.90;;;;;;5016070;28;20476;-61
2022/02/03 00:28:25;;;;;;;10.70;9.60;;;7.00;99.90;;;;;;5025702;28;20490;-61
2022/02/03 00:36:10;;;;;;;11.83;10.63;;;7.10;99.90;;;;;;5011416;28;20440;-62
2022/02/03 00:49:20;;;;;;;15.60;11.00;;;7.00;99.90;;;;;;5027190;28;20472;-61
2022/02/03 00:51:49;;;;;;;12.40;11.17;;;7.00;99.90;;;;;;5028388;28;20433;-61
2022/02/03 00:54:18;;;;;;;10.27;9.17;;;6.90;99.90;;;;;;5020505;28;20632;-61
2022/02/03 00:56:51;;;;;;;11.37;9.67;;;7.00;99.90;;;;;;5018660;28;20428;-61
2022/02/03 00:59:37;;;;;;;11.07;9.07;;;7.00;99.90;;;;;;5005905;28;20484;-60
2022/02/03 01:02:12;;;;;;;10.10;9.10;;;7.10;99.90;;;;;;5026054;28;20451;-61
2022/02/03 01:04:40;;;;;;;10.20;8.27;;;7.10;99.90;;;;;;5011511;28;20453;-61
2022/02/03 01:07:15;;;;;;;10.20;8.80;;;7.00;99.90;;;;;;5025893;28;20524;-61
2022/02/03 01:09:54;;;;;;;9.90;8.90;;;7.00;99.90;;;;;;5030667;28;20506;-60
2022/02/03 01:15:09;;;;;;;11.53;10.30;;;7.00;99.90;;;;;;5024520;28;20927;-61
2022/02/03 01:17:51;;;;;;;11.33;9.93;;;7.10;99.90;;;;;;5026328;28;20429;-62
2022/02/03 01:21:00;;;;;;;11.23;10.20;;;7.10;99.90;;;;;;5015982;28;20433;-62
2022/02/03 01:43:20;;;;;;;10.13;9.13;;;7.50;99.90;;;;;;5020172;28;20468;-61
2022/02/03 01:53:32;;;;;;;8.97;8.17;;;7.60;99.90;;;;;;5020600;28;20459;-62
2022/02/03 01:56:10;;;;;;;10.57;9.57;;;7.60;99.90;;;;;;5029398;28;20446;-61
2022/02/03 01:58:45;;;;;;;11.03;9.87;;;7.60;99.90;;;;;;5015942;28;20863;-61
2022/02/03 02:01:14;;;;;;;11.73;9.40;;;7.50;99.90;;;;;;5014889;28;20463;-62
2022/02/03 02:04:04;;;;;;;9.67;8.87;;;7.50;99.90;;;;;;5014992;28;20450;-61
2022/02/03 02:06:45;;;;;;;10.37;9.47;;;7.40;99.90;;;;;;5013013;28;20503;-61
2022/02/03 02:09:53;;;;;;;11.77;9.47;;;7.30;99.90;;;;;;5015714;28;20473;-62
2022/02/03 02:12:26;;;;;;;11.10;10.00;;;7.30;99.90;;;;;;5023810;28;20519;-62
2022/02/03 02:36:56;;;;;;;11.70;10.10;;;7.10;99.90;;;;;;5020221;28;20443;-62
2022/02/03 02:37:56;;;;;;;15.90;11.43;;;7.10;99.90;;;;;;5022589;28;20484;-62
2022/02/03 02:43:19;;;;;;;14.53;10.43;;;7.10;99.90;;;;;;5012426;28;20457;-62
2022/02/03 02:46:29;;;;;;;12.27;10.53;;;7.20;99.90;;;;;;5012737;28;20548;-62
2022/02/03 02:49:14;;;;;;;11.70;9.60;;;7.20;99.90;;;;;;5009730;28;20989;-62
2022/02/03 02:51:53;;;;;;;13.90;12.00;;;7.20;99.90;;;;;;5025434;28;20433;-62
2022/02/03 02:57:55;;;;;;;12.07;9.10;;;7.10;99.90;;;;;;5013011;28;20425;-62
2022/02/03 03:35:51;;;;;;;11.80;9.43;;;6.90;99.90;;;;;;5011970;28;20487;-62
2022/02/03 03:38:21;;;;;;;8.90;8.00;;;6.90;99.90;;;;;;5013412;28;20457;-61
2022/02/03 03:40:55;;;;;;;7.97;6.67;;;6.90;99.90;;;;;;5013976;28;20438;-62
2022/02/03 03:43:39;;;;;;;9.30;7.70;;;6.80;99.90;;;;;;5028913;28;20970;-61
2022/02/03 03:46:26;;;;;;;9.70;8.30;;;6.80;99.90;;;;;;5029426;28;20483;-62
2022/02/03 03:49:09;;;;;;;9.03;8.00;;;6.70;99.90;;;;;;5016045;28;20545;-61
2022/02/03 03:51:48;;;;;;;9.80;8.27;;;6.70;99.90;;;;;;5024239;28;20835;-62
2022/02/03 03:57:10;;;;;;;10.57;9.43;;;6.60;99.90;;;;;;5011700;28;20418;-62
2022/02/03 04:00:12;;;;;;;12.30;9.20;;;6.60;99.90;;;;;;5011423;28;20529;-62
2022/02/03 04:29:48;;;;;;;12.73;9.97;;;6.60;99.90;;;;;;5022551;28;20556;-62
2022/02/03 04:32:42;;;;;;;11.50;10.17;;;6.60;99.90;;;;;;5028419;28;20424;-62
2022/02/03 04:38:13;;;;;;;10.30;9.23;;;6.60;99.90;;;;;;5012107;28;20487;-62
2022/02/03 04:56:56;;;;;;;11.40;10.20;;;6.70;99.90;;;;;;5014269;28;20771;-61
2022/02/03 05:02:56;;;;;;;11.73;9.30;;;6.60;99.90;;;;;;5023286;28;20885;-61
2022/02/03 05:08:30;;;;;;;11.10;9.67;;;6.70;99.90;;;;;;5017157;28;20489;-62
2022/02/03 05:11:31;;;;;;;9.13;8.23;;;6.70;99.90;;;;;;5026419;28;20512;-62
2022/02/03 05:24:10;;;;;;;12.03;10.53;;;6.70;99.90;;;;;;5018287;28;20524;-62
2022/02/03 05:33:16;;;;;;;10.53;9.53;;;6.80;99.90;;;;;;5018565;28;20452;-62
2022/02/03 05:42:20;;;;;;;10.03;9.03;;;6.60;99.90;;;;;;5007803;28;20424;-62
2022/02/03 05:51:02;;;;;;;9.20;8.20;;;6.50;99.90;;;;;;5013845;28;20485;-62
2022/02/03 06:04:49;;;;;;;11.83;9.33;;;6.70;99.90;;;;;;5014876;28;20449;-62
2022/02/03 06:07:28;;;;;;;13.27;9.80;;;6.70;99.90;;;;;;5023816;28;20439;-62
2022/02/03 06:12:49;;;;;;;11.90;10.60;;;6.60;99.90;;;;;;5019851;28;20445;-62
2022/02/03 06:15:19;;;;;;;11.23;10.03;;;6.60;99.90;;;;;;5020266;28;20431;-62
2022/02/03 06:21:40;;;;;;;10.80;9.30;;;6.60;99.90;;;;;;5012726;28;20973;-62
2022/02/03 06:23:51;;;;;;;11.37;9.07;;;6.60;99.90;;;;;;5009395;28;20481;-62
2022/02/03 06:29:07;;;;;;;11.73;9.20;;;6.60;99.90;;;;;;5026899;28;20460;-62
2022/02/03 06:31:40;;;;;;;14.90;9.37;;;6.70;99.90;;;;;;5017868;28;20438;-62
2022/02/03 06:34:06;;;;;;;10.57;8.80;;;6.80;99.90;;;;;;5017691;28;20450;-62
2022/02/03 06:36:33;;;;;;;13.17;8.97;;;6.80;99.90;;;;;;5028064;28;20436;-61
2022/02/03 06:38:59;;;;;;;13.60;8.97;;;6.80;99.90;;;;;;5029813;28;20429;-62
2022/02/03 06:41:24;;;;;;;10.90;9.03;;;6.80;99.90;;;;;;5024674;28;20934;-62
2022/02/03 06:43:50;;;;;;;10.20;9.20;;;6.90;99.90;;;;;;5031961;28;20467;-62
2022/02/03 06:46:16;;;;;;;12.90;8.80;;;6.90;99.90;;;;;;5018811;28;20186;-62
2022/02/03 06:48:47;;;;;;;10.03;8.83;;;6.90;99.90;;;;;;5017610;28;20195;-62
2022/02/03 06:51:20;;;;;;;9.47;7.77;;;6.80;99.90;;;;;;5018132;28;20439;-62
2022/02/03 06:53:51;;;;;;;10.40;8.60;;;6.90;99.90;;;;;;5011256;28;20446;-62
2022/02/03 06:56:35;;;;;;;10.90;7.07;;;6.90;99.90;;;;;;5028116;28;20417;-62
2022/02/03 06:59:02;;;;;;;7.90;7.10;;;6.90;99.90;;;;;;5020607;28;20961;-61
2022/02/03 07:01:35;;;;;;;12.00;7.67;;;7.00;99.90;;;;;;5021969;28;20540;-62
2022/02/03 07:04:04;;;;;;;11.17;9.37;;;7.00;99.90;;;;;;5018851;28;20511;-62
2022/02/03 07:06:31;;;;;;;11.80;9.70;;;7.20;99.90;;;;;;5016067;28;20946;-62
2022/02/03 07:09:01;;;;;;;11.03;9.00;;;7.10;99.90;;;;;;5011610;28;20969;-63
2022/02/03 07:11:26;;;;;;;15.10;9.27;;;7.10;99.90;;;;;;5012794;28;20433;-62
2022/02/03 07:13:52;;;;;;;9.37;8.40;;;7.10;99.90;;;;;;5015949;28;20457;-62
2022/02/03 07:16:17;;;;;;;9.03;7.73;;;7.20;99.90;;;;;;5022637;28;20186;-62
2022/02/03 07:18:43;;;;;;;9.90;7.50;;;7.30;99.90;;;;;;5025542;28;20205;-62
2022/02/03 07:21:12;;;;;;;9.73;7.80;;;7.40;99.90;;;;;;5012597;28;20627;-62
2022/02/03 07:23:39;;;;;;;9.70;7.60;;;7.50;99.90;;;;;;5031745;28;20737;-62
2022/02/03 07:26:04;;;;;;;8.33;7.53;;;7.50;99.90;;;;;;5012579;28;20461;-62
2022/02/03 07:28:30;;;;;;;9.80;7.43;;;7.60;99.90;;;;;;5016273;28;20492;-62
2022/02/03 07:30:55;;;;;;;9.90;8.90;;;7.60;99.90;;;;;;5020380;28;20310;-62
2022/02/03 07:33:21;;;;;;;8.70;7.77;;;7.60;99.90;;;;;;5020973;28;20206;-61
2022/02/03 07:35:47;;;;;;;8.53;7.17;;;7.70;99.90;;;;;;5018770;28;20229;-61
2022/02/03 07:38:12;;;;;;;8.90;7.03;;;7.80;99.90;;;;;;5014321;28;20437;-62
2022/02/03 07:40:38;;;;;;;8.73;7.87;;;7.90;99.90;;;;;;5030081;28;20185;-64
2022/02/03 07:43:08;;;;;;;8.77;7.87;;;7.80;99.90;;;;;;5015985;28;20199;-63
2022/02/03 07:45:35;;;;;;;8.30;7.40;;;7.90;99.90;;;;;;4980257;28;20457;-61
2022/02/03 07:48:00;;;;;;;7.97;7.27;;;7.80;99.90;;;;;;4999677;28;20966;-61
2022/02/03 07:50:26;;;;;;;9.83;8.83;;;7.80;99.90;;;;;;5008386;28;20441;-61
2022/02/03 07:52:52;;;;;;;10.93;7.93;;;7.80;99.90;;;;;;5011632;28;20210;-62
2022/02/03 07:55:17;;;;;;;8.73;7.87;;;7.90;99.90;;;;;;5014699;28;20546;-62
2022/02/03 07:57:47;;;;;;;7.63;6.93;;;8.00;99.90;;;;;;5028725;28;20175;-62
2022/02/03 08:00:14;;;;;;;8.20;7.40;;;8.10;99.90;;;;;;5028612;28;20546;-61
2022/02/03 08:02:44;;;;;;;8.30;7.50;;;8.20;99.90;;;;;;5012638;28;20481;-61
2022/02/03 08:05:15;;;;;;;8.00;7.20;;;8.20;99.90;;;;;;5007932;28;20428;-62
2022/02/03 08:07:55;;;;;;;8.07;7.33;;;8.30;99.90;;;;;;5025601;28;20926;-62
2022/02/03 08:10:57;;;;;;;8.27;7.47;;;8.30;99.90;;;;;;5026862;28;20512;-62
2022/02/03 08:13:18;;;;;;;10.67;9.57;;;8.30;99.90;;;;;;5011703;28;20448;-62
2022/02/03 08:15:44;;;;;;;12.67;9.97;;;8.30;99.90;;;;;;5011013;28;20516;-62
2022/02/03 08:18:16;;;;;;;10.93;8.87;;;8.10;99.90;;;;;;5011865;28;20580;-62
2022/02/03 08:20:46;;;;;;;9.97;8.97;;;8.00;99.90;;;;;;5024868;28;20608;-62
2022/02/03 08:25:59;;;;;;;11.00;8.93;;;7.90;99.90;;;;;;5009093;28;20433;-62
2022/02/03 08:28:39;;;;;;;8.33;7.43;;;8.00;99.90;;;;;;5017368;28;20452;-62
2022/02/03 08:31:08;;;;;;;7.00;6.30;;;8.20;99.90;;;;;;5014368;28;20925;-62
2022/02/03 08:33:34;;;;;;;8.80;7.90;;;8.10;99.90;;;;;;5029818;28;20535;-63
2022/02/03 08:36:02;;;;;;;7.93;7.20;;;8.10;99.90;;;;;;5024032;28;20674;-62
2022/02/03 08:38:44;;;;;;;8.07;7.37;;;8.30;99.90;;;;;;5018442;28;20531;-62
2022/02/03 08:41:10;;;;;;;6.80;6.17;;;8.40;99.90;;;;;;5028040;28;20429;-62
2022/02/03 08:43:37;;;;;;;8.80;7.13;;;8.40;99.90;;;;;;5025595;28;20591;-62
2022/02/03 08:46:05;;;;;;;8.67;7.77;;;8.60;99.90;;;;;;5021607;28;20175;-62
2022/02/03 08:48:31;;;;;;;7.10;6.40;;;8.50;99.90;;;;;;5018871;28;20464;-62
2022/02/03 08:50:58;;;;;;;7.00;6.30;;;8.80;99.90;;;;;;5026141;28;20783;-62
2022/02/03 08:53:44;;;;;;;6.37;5.87;;;9.00;99.90;;;;;;5007637;28;20453;-62
2022/02/03 08:56:21;;;;;;;6.23;5.73;;;9.10;99.90;;;;;;5010703;28;20482;-62
2022/02/03 09:36:34;;;;;;;4.07;3.77;;;8.70;99.90;;;;;;5012779;28;20444;-62
2022/02/03 09:39:28;;;;;;;4.93;3.83;;;8.90;99.90;;;;;;5011860;28;20201;-63
2022/02/03 09:55:59;;;;;;;3.40;2.97;;;9.70;99.90;;;;;;5008222;28;20448;-63
2022/02/03 09:58:28;;;;;;;2.70;2.50;;;10.00;99.90;;;;;;5010106;28;20448;-63
2022/02/03 10:03:37;;;;;;;4.10;3.70;;;10.00;99.90;;;;;;5016416;28;20489;-63
2022/02/03 10:08:33;;;;;;;3.43;3.10;;;9.50;99.90;;;;;;5018237;28;21008;-62
2022/02/03 10:11:24;;;;;;;3.20;2.90;;;9.20;99.90;;;;;;5018041;28;20809;-63
2022/02/03 10:13:50;;;;;;;2.63;2.43;;;9.20;99.90;;;;;;5017728;28;20454;-62
2022/02/03 10:16:18;;;;;;;2.70;2.50;;;9.30;99.90;;;;;;5025325;28;20789;-62
2022/02/03 10:18:45;;;;;;;2.57;2.00;;;9.60;99.90;;;;;;5019904;28;20947;-62
2022/02/03 10:21:16;;;;;;;2.13;2.00;;;10.10;99.90;;;;;;5015034;28;20773;-61
2022/02/03 10:23:53;;;;;;;2.60;2.40;;;10.20;99.90;;;;;;5018996;28;20458;-66
2022/02/03 10:26:18;;;;;;;3.00;2.50;;;10.30;99.90;;;;;;5019067;28;21182;-62
2022/02/03 10:28:55;;;;;;;2.50;2.30;;;10.60;99.90;;;;;;5020329;28;20448;-63
2022/02/03 10:31:25;;;;;;;2.40;2.23;;;11.30;99.90;;;;;;5013196;28;20178;-63
2022/02/03 10:34:01;;;;;;;2.30;2.17;;;11.70;99.90;;;;;;5025470;28;20532;-63
2022/02/03 10:37:01;;;;;;;2.50;2.30;;;10.90;99.90;;;;;;5012890;28;20798;-63
2022/02/03 10:45:08;;;;;;;2.40;2.20;;;10.40;99.90;;;;;;5020886;28;20437;-63
2022/02/03 10:48:05;;;;;;;2.90;2.27;;;10.30;99.90;;;;;;5024760;28;20441;-63
2022/02/03 10:53:35;;;;;;;1.60;1.50;;;10.10;99.90;;;;;;5011840;28;20970;-63
2022/02/03 10:56:21;;;;;;;4.30;2.93;;;10.40;99.90;;;;;;5010236;28;20426;-63
2022/02/03 10:59:21;;;;;;;2.93;2.67;;;10.90;99.90;;;;;;5012974;28;20493;-63
2022/02/03 11:07:10;;;;;;;2.10;1.90;;;11.70;99.90;;;;;;5012607;28;20501;-63
2022/02/03 11:09:50;;;;;;;1.80;1.70;;;12.50;99.90;;;;;;5015403;28;20489;-63
2022/02/03 11:12:21;;;;;;;1.90;1.80;;;12.90;99.90;;;;;;5020634;28;20474;-63
2022/02/03 11:14:48;;;;;;;2.33;2.23;;;12.60;99.90;;;;;;5017142;28;20954;-63
2022/02/03 11:17:18;;;;;;;1.70;1.60;;;12.70;99.90;;;;;;5021246;28;20472;-63
2022/02/03 11:19:51;;;;;;;2.57;2.37;;;12.90;99.90;;;;;;5021663;28;20541;-63
2022/02/03 11:22:23;;;;;;;2.90;2.13;;;12.20;99.90;;;;;;5021619;28;20441;-63
2022/02/03 11:25:02;;;;;;;2.10;1.90;;;11.90;99.90;;;;;;5016664;28;20440;-63
2022/02/03 11:27:48;;;;;;;2.40;2.20;;;11.30;99.90;;;;;;5020086;28;20800;-63
2022/02/03 11:33:34;;;;;;;2.70;1.90;;;10.90;99.90;;;;;;5011812;28;20445;-62
2022/02/03 11:47:33;;;;;;;1.80;1.70;;;10.40;99.90;;;;;;5011593;28;20421;-63
2022/02/03 12:01:00;;;;;;;1.50;1.40;;;11.10;99.90;;;;;;5011193;28;20433;-62
2022/02/03 12:12:36;;;;;;;2.60;2.13;;;11.90;99.90;;;;;;5016142;28;20418;-63
2022/02/03 12:18:02;;;;;;;2.00;1.80;;;11.60;99.90;;;;;;5015894;28;20413;-62
2022/02/03 12:20:50;;;;;;;2.33;2.10;;;11.40;99.90;;;;;;5015626;28;20911;-62
2022/02/03 12:23:48;;;;;;;2.37;2.17;;;11.30;99.90;;;;;;5015626;28;20453;-63
2022/02/03 12:29:05;;;;;;;1.70;1.60;;;11.10;99.90;;;;;;5014546;28;20453;-64
2022/02/03 12:37:04;;;;;;;2.13;1.70;;;11.50;99.90;;;;;;5014732;28;20182;-64
2022/02/03 12:40:03;;;;;;;2.17;1.97;;;11.50;99.90;;;;;;5014481;28;20457;-61
2022/02/03 12:45:14;;;;;;;2.13;1.90;;;11.90;99.90;;;;;;5012003;28;20414;-62
2022/02/03 12:47:42;;;;;;;3.60;1.80;;;11.80;99.90;;;;;;5013862;28;20722;-64
2022/02/03 12:50:13;;;;;;;3.60;2.00;;;12.00;99.90;;;;;;5014032;28;20465;-64
2022/02/03 12:52:38;;;;;;;1.80;1.60;;;11.80;99.90;;;;;;5014359;28;20452;-64
2022/02/03 12:55:04;;;;;;;2.40;2.10;;;11.90;99.90;;;;;;5013690;28;20413;-64
2022/02/03 12:57:33;;;;;;;2.47;2.17;;;11.90;99.90;;;;;;5015042;28;20178;-63
2022/02/03 13:00:12;;;;;;;3.47;2.47;;;11.70;99.90;;;;;;5014062;28;20191;-63
2022/02/03 13:02:38;;;;;;;2.17;1.97;;;11.50;99.90;;;;;;5014331;28;20496;-64
2022/02/03 13:05:04;;;;;;;2.57;2.00;;;11.40;99.90;;;;;;5023824;28;20837;-61
2022/02/03 13:07:30;;;;;;;2.53;2.33;;;11.40;99.90;;;;;;5022422;28;20186;-64
2022/02/03 13:10:04;;;;;;;3.63;2.00;;;11.50;99.90;;;;;;5017323;28;20979;-65
2022/02/03 13:12:36;;;;;;;1.73;1.63;;;11.50;99.90;;;;;;5014536;28;20433;-64
2022/02/03 13:15:04;;;;;;;2.20;2.00;;;11.30;99.90;;;;;;5025302;28;20426;-64
2022/02/03 13:17:35;;;;;;;6.10;2.03;;;11.30;99.90;;;;;;5017926;28;20459;-64
2022/02/03 13:20:20;;;;;;;2.40;2.20;;;11.00;99.90;;;;;;5027004;28;20513;-64
2022/02/03 13:22:53;;;;;;;2.40;2.20;;;10.70;99.90;;;;;;5027081;28;20822;-65
2022/02/03 13:25:41;;;;;;;2.80;2.60;;;10.60;99.90;;;;;;5014371;28;20434;-64
2022/02/03 13:28:13;;;;;;;3.40;2.10;;;10.70;99.90;;;;;;5017391;28;21050;-64
2022/02/03 13:31:00;;;;;;;2.80;2.60;;;10.60;99.90;;;;;;5023529;28;20565;-64
2022/02/03 13:33:30;;;;;;;3.70;2.03;;;10.60;99.90;;;;;;5022924;28;20830;-64
2022/02/03 13:36:05;;;;;;;2.80;2.03;;;10.50;99.90;;;;;;5018990;28;20425;-65
2022/02/03 13:41:17;;;;;;;2.80;1.93;;;10.60;99.90;;;;;;5023057;28;20436;-65
2022/02/03 13:43:44;;;;;;;2.57;2.30;;;11.00;99.90;;;;;;5015986;28;20453;-65
2022/02/03 13:46:13;;;;;;;7.93;3.43;;;11.00;99.90;;;;;;5024980;28;20444;-65
2022/02/03 13:48:39;;;;;;;3.87;3.50;;;11.30;99.90;;;;;;5029785;28;20457;-64
2022/02/03 13:51:09;;;;;;;2.80;2.60;;;11.40;99.90;;;;;;5017196;28;20473;-65
2022/02/03 14:16:17;;;;;;;4.37;3.40;;;11.30;99.90;;;;;;5016915;28;20874;-65
2022/02/03 14:21:19;;;;;;;3.80;2.53;;;11.10;99.90;;;;;;5014275;28;20943;-65
2022/02/03 14:29:22;;;;;;;4.43;2.60;;;10.80;99.90;;;;;;5024210;28;20531;-65
2022/02/03 14:31:57;;;;;;;2.87;2.57;;;10.60;99.90;;;;;;5022565;28;20516;-64
2022/02/03 14:34:27;;;;;;;3.87;2.93;;;10.50;99.90;;;;;;5021370;28;20453;-65
2022/02/03 14:42:37;;;;;;;3.20;2.90;;;10.30;99.90;;;;;;5001703;28;20957;-64
2022/02/03 14:45:04;;;;;;;6.83;5.17;;;10.20;99.90;;;;;;5010282;28;20477;-64
2022/02/03 14:47:31;;;;;;;4.00;3.60;;;10.20;99.90;;;;;;5026641;28;20440;-64
2022/02/03 14:50:00;;;;;;;2.90;2.70;;;10.20;99.90;;;;;;5013452;28;20531;-64
2022/02/03 14:52:33;;;;;;;3.77;3.47;;;10.20;99.90;;;;;;5013759;28;20833;-64
2022/02/03 15:00:28;;;;;;;4.93;3.40;;;10.00;99.90;;;;;;5024286;28;20469;-64
2022/02/03 15:02:55;;;;;;;3.27;2.87;;;10.00;99.90;;;;;;5013762;28;20450;-64
2022/02/03 15:05:33;;;;;;;2.73;2.53;;;10.00;99.90;;;;;;5018365;28;20482;-64
2022/02/03 15:08:03;;;;;;;4.83;4.00;;;10.00;99.90;;;;;;5015057;28;20440;-64
2022/02/03 15:10:41;;;;;;;12.20;9.30;;;10.00;99.90;;;;;;5016876;28;20488;-64
2022/02/03 15:13:13;;;;;;;5.00;3.40;;;10.00;99.90;;;;;;5009370;28;20459;-64
2022/02/03 15:15:39;;;;;;;5.33;3.60;;;9.90;99.90;;;;;;5016615;28;20428;-64
2022/02/03 15:18:05;;;;;;;3.60;3.30;;;10.00;99.90;;;;;;5012139;28;20479;-60
2022/02/03 15:20:31;;;;;;;3.30;3.00;;;10.00;99.90;;;;;;5015953;28;20739;-60
2022/02/03 15:22:57;;;;;;;2.57;2.30;;;10.10;99.90;;;;;;5022693;28;20202;-63
2022/02/03 15:25:23;;;;;;;6.17;3.10;;;10.00;99.90;;;;;;5011753;28;20488;-63
2022/02/03 15:27:49;;;;;;;5.77;2.77;;;10.00;99.90;;;;;;5012377;28;20450;-63
2022/02/03 15:30:15;;;;;;;5.73;2.73;;;9.90;99.90;;;;;;5022516;28;20221;-62
2022/02/03 15:32:42;;;;;;;3.43;3.13;;;10.10;99.90;;;;;;5017893;28;20497;-62
2022/02/03 15:35:20;;;;;;;3.93;3.30;;;10.10;99.90;;;;;;5022636;28;20429;-63
2022/02/03 15:37:47;;;;;;;3.80;2.80;;;10.10;99.90;;;;;;5016918;28;20490;-63
2022/02/03 15:40:18;;;;;;;3.53;2.67;;;10.10;99.90;;;;;;5016708;28;20452;-62
2022/02/03 15:42:52;;;;;;;6.27;3.90;;;10.00;99.90;;;;;;5023832;28;20483;-65
2022/02/03 15:45:18;;;;;;;4.30;3.33;;;9.90;99.90;;;;;;5011786;28;20440;-63
2022/02/03 15:47:49;;;;;;;3.70;3.40;;;10.00;99.90;;;;;;5019317;28;20490;-62
2022/02/03 16:01:19;;;;;;;7.33;3.50;;;9.80;99.90;;;;;;5019543;28;20437;-63
2022/02/03 16:04:07;;;;;;;5.33;4.83;;;9.70;99.90;;;;;;5011281;28;21016;-63
2022/02/03 16:17:13;;;;;;;4.17;3.77;;;9.50;99.90;;;;;;5024808;28;20994;-63
2022/02/03 16:20:07;;;;;;;3.70;3.30;;;9.40;99.90;;;;;;5009865;28;20183;-63
2022/02/03 16:41:15;;;;;;;5.40;4.20;;;8.80;99.90;;;;;;5014138;28;21318;-63
2022/02/03 16:54:14;;;;;;;4.57;4.17;;;8.60;99.90;;;;;;5020775;28;20453;-65
2022/02/03 16:56:39;;;;;;;5.27;4.77;;;8.60;99.90;;;;;;5016173;28;20170;-65
2022/02/03 16:59:05;;;;;;;5.63;5.03;;;8.60;99.90;;;;;;5016834;28;21207;-64
2022/02/03 17:01:31;;;;;;;5.40;4.90;;;8.50;99.90;;;;;;5022477;28;20488;-64
2022/02/03 17:03:57;;;;;;;5.50;5.00;;;8.50;99.90;;;;;;5022107;28;20202;-65
2022/02/03 17:06:23;;;;;;;3.97;3.67;;;8.50;99.90;;;;;;5017672;28;20178;-64
2022/02/03 17:08:48;;;;;;;5.93;5.10;;;8.50;99.90;;;;;;5020616;28;20257;-64
2022/02/03 17:11:14;;;;;;;5.27;4.77;;;8.50;99.90;;;;;;5018249;28;20522;-64
2022/02/03 17:13:39;;;;;;;8.17;7.30;;;8.40;99.90;;;;;;5016634;28;20251;-64
2022/02/03 17:16:06;;;;;;;7.50;5.60;;;8.40;99.90;;;;;;5012254;28;20186;-65
2022/02/03 17:18:32;;;;;;;5.00;4.50;;;8.50;99.90;;;;;;5015347;28;20771;-65
2022/02/03 17:20:57;;;;;;;6.47;5.87;;;8.40;99.90;;;;;;5027149;28;20463;-65
2022/02/03 17:23:25;;;;;;;6.13;5.47;;;8.50;99.90;;;;;;5015235;28;20197;-65
2022/02/03 17:26:16;;;;;;;5.53;5.03;;;8.50;99.90;;;;;;5020642;28;20205;-65
2022/02/03 18:51:26;;;;;;;10.37;8.57;;;8.10;99.90;;;;;;5015989;28;20434;-64
2022/02/03 19:01:28;;;;;;;8.80;7.90;;;7.90;99.90;;;;;;5021338;28;20811;-64
2022/02/03 19:15:01;;;;;;;10.20;9.20;;;7.40;99.90;;;;;;5026925;28;20969;-64
2022/02/03 20:11:35;;;;;;;16.87;14.30;;;7.10;99.90;;;;;;4969843;28;20492;-64
2022/02/03 20:14:01;;;;;;;15.20;11.60;;;7.10;99.90;;;;;;4970869;28;20452;-64
2022/02/03 20:16:26;;;;;;;19.40;14.40;;;7.00;99.90;;;;;;4974103;28;20496;-65
2022/02/03 20:18:52;;;;;;;18.10;15.63;;;7.00;99.90;;;;;;4988166;28;20175;-63
2022/02/03 20:21:18;;;;;;;19.73;15.70;;;6.80;99.90;;;;;;4979000;28;20242;-63
2022/02/03 20:23:46;;;;;;;20.50;15.97;;;6.90;99.90;;;;;;4972380;28;20599;-64
2022/02/03 20:26:13;;;;;;;17.50;13.83;;;6.90;99.90;;;;;;4977250;28;20475;-64
2022/02/03 20:28:39;;;;;;;18.30;13.27;;;6.90;99.90;;;;;;4995206;28;20458;-64
2022/02/03 20:31:04;;;;;;;14.90;10.63;;;7.00;99.90;;;;;;4986816;28;20431;-64
2022/02/03 20:33:30;;;;;;;15.17;12.47;;;6.90;99.90;;;;;;4986986;28;20203;-64
2022/02/03 20:35:56;;;;;;;15.40;13.77;;;6.80;99.90;;;;;;4986344;28;20233;-64
2022/02/03 20:38:22;;;;;;;15.20;11.60;;;6.90;99.90;;;;;;4984316;28;20215;-62
2022/02/03 20:40:48;;;;;;;19.87;13.73;;;7.00;99.90;;;;;;4981486;28;20422;-64
2022/02/03 20:43:14;;;;;;;12.73;10.73;;;6.90;99.90;;;;;;4992495;28;20194;-64
2022/02/03 20:45:41;;;;;;;17.60;12.87;;;6.90;99.90;;;;;;4975974;28;20435;-63
2022/02/03 20:48:07;;;;;;;12.17;10.10;;;6.90;99.90;;;;;;4989946;28;20194;-62
2022/02/03 20:50:35;;;;;;;12.30;10.43;;;6.90;99.90;;;;;;4982877;28;20431;-63
2022/02/03 20:53:02;;;;;;;12.07;9.00;;;6.90;99.90;;;;;;4988148;28;20196;-64
2022/02/03 20:55:27;;;;;;;11.63;9.77;;;6.90;99.90;;;;;;4993879;28;20434;-65
2022/02/03 20:57:53;;;;;;;11.03;9.67;;;7.00;99.90;;;;;;4981036;28;20433;-64
2022/02/03 21:05:18;;;;;;;17.53;11.50;;;6.90;99.90;;;;;;4989698;28;20180;-64
2022/02/03 21:07:47;;;;;;;21.20;16.17;;;6.80;99.90;;;;;;4981124;28;20464;-65
2022/02/03 21:10:17;;;;;;;24.37;18.00;;;6.80;99.90;;;;;;4994875;28;20668;-65
2022/02/03 21:12:44;;;;;;;19.30;14.50;;;6.80;99.90;;;;;;4982324;28;20825;-64
2022/02/03 21:15:11;;;;;;;24.43;16.67;;;6.80;99.90;;;;;;4976003;28;20458;-65
2022/02/03 21:17:37;;;;;;;17.50;14.50;;;6.80;99.90;;;;;;4991342;28;20988;-65
2022/02/03 21:20:09;;;;;;;23.73;14.60;;;6.80;99.90;;;;;;4979437;28;20434;-65
2022/02/03 21:22:37;;;;;;;19.13;13.93;;;6.80;99.90;;;;;;4975462;28;20439;-65
2022/02/03 21:25:05;;;;;;;18.50;13.37;;;6.70;99.90;;;;;;4990188;28;20442;-65
2022/02/03 21:27:33;;;;;;;32.30;16.87;;;6.60;99.90;;;;;;4992231;28;20442;-64
2022/02/03 21:30:00;;;;;;;18.13;14.33;;;6.50;99.90;;;;;;4981294;28;20458;-65
2022/02/03 21:32:26;;;;;;;16.17;14.23;;;6.50;99.90;;;;;;4986331;28;20466;-65
2022/02/03 21:34:53;;;;;;;18.83;13.50;;;6.40;99.90;;;;;;4975553;28;20459;-65
2022/02/03 21:37:18;;;;;;;21.20;13.37;;;6.40;99.90;;;;;;4986296;28;20180;-65
2022/02/03 21:39:44;;;;;;;16.77;13.20;;;6.50;99.90;;;;;;4975474;28;20860;-65
2022/02/03 21:42:09;;;;;;;12.97;11.73;;;6.50;99.90;;;;;;4977026;28;20176;-65
2022/02/03 21:44:35;;;;;;;13.60;11.63;;;6.50;99.90;;;;;;4975391;28;20629;-65
2022/02/03 21:47:01;;;;;;;12.77;11.67;;;6.40;99.90;;;;;;4975909;28;20208;-65
2022/02/03 21:49:26;;;;;;;12.40;11.20;;;6.30;99.90;;;;;;4975357;28;20196;-66
2022/02/03 21:51:54;;;;;;;11.83;10.67;;;6.30;99.90;;;;;;4974614;28;20626;-65
2022/02/03 21:54:21;;;;;;;11.43;10.03;;;6.30;99.90;;;;;;4976628;28;20199;-65
2022/02/03 21:56:48;;;;;;;12.63;11.33;;;6.30;99.90;;;;;;4974873;28;20436;-65
2022/02/03 21:59:15;;;;;;;15.20;13.13;;;6.30;99.90;;;;;;4975018;28;20443;-66
2022/02/03 22:01:42;;;;;;;12.60;10.77;;;6.40;99.90;;;;;;4975732;28;20442;-65
2022/02/03 22:04:08;;;;;;;12.33;10.57;;;6.40;99.90;;;;;;4975561;28;20554;-65
2022/02/03 22:06:33;;;;;;;13.53;10.93;;;6.50;99.90;;;;;;4977301;28;20542;-65
2022/02/03 22:08:59;;;;;;;12.70;11.10;;;6.50;99.90;;;;;;4982585;28;20552;-65
2022/02/03 22:11:25;;;;;;;16.07;11.53;;;6.50;99.90;;;;;;4985104;28;20184;-65
2022/02/03 22:13:51;;;;;;;16.50;12.03;;;6.50;99.90;;;;;;4989836;28;20234;-65
2022/02/03 22:16:22;;;;;;;14.30;10.90;;;6.40;99.90;;;;;;4981375;28;20175;-65
2022/02/03 22:18:48;;;;;;;12.83;11.53;;;6.40;99.90;;;;;;4977757;28;20233;-65
2022/02/03 22:22:07;;;;;;;12.30;11.13;;;6.40;99.90;;;;;;4988007;28;20474;-65
2022/02/03 22:24:59;;;;;;;14.40;12.20;;;6.40;99.90;;;;;;4978361;28;20952;-65
2022/02/03 22:45:47;;;;;;;14.20;11.83;;;6.30;99.90;;;;;;4979328;28;20850;-65
2022/02/03 22:48:24;;;;;;;14.63;11.73;;;6.30;99.90;;;;;;4979812;28;20224;-65
2022/02/03 22:50:51;;;;;;;13.93;12.53;;;6.30;99.90;;;;;;4975009;28;20957;-65
2022/02/03 22:53:16;;;;;;;14.63;11.73;;;6.30;99.90;;;;;;4975303;28;20475;-65
2022/02/03 22:55:41;;;;;;;17.70;13.30;;;6.30;99.90;;;;;;4974767;28;20474;-65
2022/02/03 22:58:55;;;;;;;14.90;12.00;;;6.20;99.90;;;;;;4976479;28;20663;-65
2022/02/03 23:00:59;;;;;;;15.37;13.33;;;6.20;99.90;;;;;;4979093;28;20608;-65
2022/02/03 23:03:33;;;;;;;16.00;11.30;;;6.10;99.90;;;;;;4975181;28;20445;-65
2022/02/03 23:05:59;;;;;;;15.30;13.60;;;6.10;99.90;;;;;;4973196;28;20523;-65
2022/02/03 23:08:54;;;;;;;13.37;11.97;;;6.00;99.90;;;;;;4982504;28;20960;-66
2022/02/03 23:19:19;;;;;;;14.10;12.63;;;5.70;99.90;;;;;;4986018;28;20433;-65
2022/02/03 23:24:11;;;;;;;15.33;13.20;;;5.70;99.90;;;;;;4982474;28;20462;-65
2022/02/03 23:26:37;;;;;;;14.33;12.77;;;5.70;99.90;;;;;;4990789;28;20431;-65
2022/02/03 23:29:09;;;;;;;15.43;13.40;;;5.70;99.90;;;;;;4979935;28;20701;-65
2022/02/03 23:31:54;;;;;;;16.57;14.10;;;5.70;99.90;;;;;;4991405;28;20439;-65
2022/02/03 23:34:21;;;;;;;14.13;12.50;;;5.80;99.90;;;;;;4974649;28;20451;-64
2022/02/03 23:36:47;;;;;;;15.77;14.17;;;5.80;99.90;;;;;;4985204;28;20430;-64
2022/02/03 23:44:18;;;;;;;15.87;14.17;;;6.00;99.90;;;;;;4980094;28;20672;-65
2022/02/03 23:50:02;;;;;;;17.27;13.97;;;6.10;99.90;;;;;;4988422;28;21002;-65
